sensor_id;sensor_type;location;lat;lon;timestamp;P1;durP1;ratioP1;P2;durP2;ratioP2
10031;SDS011;5056;44.272;19.892;2022-10-20T00:01:11;18.33;;;13.30;;
10031;SDS011;5056;44.272;19.892;2022-10-20T00:03:39;13.77;;;12.37;;
10031;SDS011;5056;44.272;19.892;2022-10-20T00:06:09;11.83;;;10.63;;
10031;SDS011;5056;44.272;19.892;2022-10-20T00:08:40;12.93;;;11.30;;
10031;SDS011;5056;44.272;19.892;2022-10-20T00:11:07;12.07;;;10.90;;
10031;SDS011;5056;44.272;19.892;2022-10-20T00:13:35;12.53;;;11.10;;
10031;SDS011;5056;44.272;19.892;2022-10-20T00:16:03;14.07;;;11.63;;
10031;SDS011;5056;44.272;19.892;2022-10-20T00:18:32;12.57;;;11.27;;
10031;SDS011;5056;44.272;19.892;2022-10-20T00:21:03;13.47;;;12.03;;
10031;SDS011;5056;44.272;19.892;2022-10-20T00:23:32;14.97;;;13.13;;
10031;SDS011;5056;44.272;19.892;2022-10-20T00:26:01;17.07;;;12.87;;
10031;SDS011;5056;44.272;19.892;2022-10-20T00:28:33;11.90;;;10.70;;
10031;SDS011;5056;44.272;19.892;2022-10-20T00:31:00;12.43;;;11.13;;
10031;SDS011;5056;44.272;19.892;2022-10-20T00:33:28;13.33;;;11.20;;
10031;SDS011;5056;44.272;19.892;2022-10-20T00:35:57;12.27;;;11.00;;
10031;SDS011;5056;44.272;19.892;2022-10-20T00:38:25;13.37;;;11.60;;
10031;SDS011;5056;44.272;19.892;2022-10-20T00:40:53;12.87;;;11.47;;
10031;SDS011;5056;44.272;19.892;2022-10-20T00:46:16;17.97;;;13.97;;
10031;SDS011;5056;44.272;19.892;2022-10-20T00:48:48;25.17;;;17.90;;
10031;SDS011;5056;44.272;19.892;2022-10-20T00:51:25;29.17;;;20.70;;
10031;SDS011;5056;44.272;19.892;2022-10-20T00:53:59;25.87;;;17.73;;
10031;SDS011;5056;44.272;19.892;2022-10-20T00:56:29;25.30;;;18.43;;
10031;SDS011;5056;44.272;19.892;2022-10-20T00:59:10;23.03;;;17.67;;
10031;SDS011;5056;44.272;19.892;2022-10-20T01:01:39;25.67;;;18.77;;
10031;SDS011;5056;44.272;19.892;2022-10-20T01:04:07;23.60;;;17.73;;
10031;SDS011;5056;44.272;19.892;2022-10-20T01:06:35;24.87;;;18.30;;
10031;SDS011;5056;44.272;19.892;2022-10-20T01:09:02;23.70;;;16.37;;
10031;SDS011;5056;44.272;19.892;2022-10-20T01:11:32;21.33;;;15.87;;
10031;SDS011;5056;44.272;19.892;2022-10-20T01:14:12;23.43;;;17.60;;
10031;SDS011;5056;44.272;19.892;2022-10-20T01:16:45;21.70;;;16.07;;
10031;SDS011;5056;44.272;19.892;2022-10-20T01:19:26;15.67;;;12.87;;
10031;SDS011;5056;44.272;19.892;2022-10-20T01:22:22;14.40;;;12.47;;
10031;SDS011;5056;44.272;19.892;2022-10-20T01:25:00;14.87;;;12.63;;
10031;SDS011;5056;44.272;19.892;2022-10-20T01:27:35;18.67;;;14.50;;
10031;SDS011;5056;44.272;19.892;2022-10-20T01:30:13;11.83;;;10.67;;
10031;SDS011;5056;44.272;19.892;2022-10-20T01:32:53;15.97;;;13.13;;
10031;SDS011;5056;44.272;19.892;2022-10-20T01:35:35;18.57;;;13.27;;
10031;SDS011;5056;44.272;19.892;2022-10-20T01:38:10;16.37;;;13.07;;
10031;SDS011;5056;44.272;19.892;2022-10-20T01:40:59;12.83;;;11.20;;
10031;SDS011;5056;44.272;19.892;2022-10-20T01:43:31;16.07;;;14.00;;
10031;SDS011;5056;44.272;19.892;2022-10-20T01:46:01;15.93;;;13.90;;
10031;SDS011;5056;44.272;19.892;2022-10-20T01:48:30;19.17;;;15.87;;
10031;SDS011;5056;44.272;19.892;2022-10-20T01:50:59;22.57;;;16.97;;
10031;SDS011;5056;44.272;19.892;2022-10-20T01:53:26;25.13;;;17.87;;
10031;SDS011;5056;44.272;19.892;2022-10-20T01:55:55;25.43;;;17.67;;
10031;SDS011;5056;44.272;19.892;2022-10-20T02:01:31;15.57;;;12.73;;
10031;SDS011;5056;44.272;19.892;2022-10-20T02:04:03;18.87;;;14.03;;
10031;SDS011;5056;44.272;19.892;2022-10-20T02:06:34;19.93;;;14.87;;
10031;SDS011;5056;44.272;19.892;2022-10-20T02:09:06;21.10;;;16.33;;
10031;SDS011;5056;44.272;19.892;2022-10-20T02:11:38;18.23;;;13.73;;
10031;SDS011;5056;44.272;19.892;2022-10-20T02:14:09;13.40;;;11.17;;
10031;SDS011;5056;44.272;19.892;2022-10-20T02:16:43;12.83;;;10.90;;
10031;SDS011;5056;44.272;19.892;2022-10-20T02:19:11;12.70;;;11.07;;
10031;SDS011;5056;44.272;19.892;2022-10-20T02:21:39;13.27;;;10.97;;
10031;SDS011;5056;44.272;19.892;2022-10-20T02:24:09;12.87;;;11.50;;
10031;SDS011;5056;44.272;19.892;2022-10-20T02:26:37;13.40;;;11.53;;
10031;SDS011;5056;44.272;19.892;2022-10-20T02:29:09;14.23;;;12.47;;
10031;SDS011;5056;44.272;19.892;2022-10-20T02:31:38;13.63;;;12.23;;
10031;SDS011;5056;44.272;19.892;2022-10-20T02:34:15;12.83;;;11.53;;
10031;SDS011;5056;44.272;19.892;2022-10-20T02:36:43;14.17;;;11.97;;
10031;SDS011;5056;44.272;19.892;2022-10-20T02:39:13;15.17;;;12.93;;
10031;SDS011;5056;44.272;19.892;2022-10-20T02:41:40;14.40;;;11.70;;
10031;SDS011;5056;44.272;19.892;2022-10-20T02:44:07;13.77;;;11.70;;
10031;SDS011;5056;44.272;19.892;2022-10-20T02:46:34;11.17;;;10.07;;
10031;SDS011;5056;44.272;19.892;2022-10-20T02:49:03;12.87;;;10.80;;
10031;SDS011;5056;44.272;19.892;2022-10-20T02:51:30;9.97;;;9.10;;
10031;SDS011;5056;44.272;19.892;2022-10-20T02:53:57;12.57;;;10.50;;
10031;SDS011;5056;44.272;19.892;2022-10-20T02:56:24;12.53;;;10.20;;
10031;SDS011;5056;44.272;19.892;2022-10-20T02:58:51;10.37;;;9.37;;
10031;SDS011;5056;44.272;19.892;2022-10-20T03:01:18;11.00;;;9.57;;
10031;SDS011;5056;44.272;19.892;2022-10-20T03:03:46;11.07;;;10.03;;
10031;SDS011;5056;44.272;19.892;2022-10-20T03:06:15;13.03;;;10.73;;
10031;SDS011;5056;44.272;19.892;2022-10-20T03:08:42;12.30;;;11.10;;
10031;SDS011;5056;44.272;19.892;2022-10-20T03:11:10;13.37;;;12.07;;
10031;SDS011;5056;44.272;19.892;2022-10-20T03:13:37;12.53;;;11.33;;
10031;SDS011;5056;44.272;19.892;2022-10-20T03:16:05;12.07;;;10.20;;
10031;SDS011;5056;44.272;19.892;2022-10-20T03:18:33;14.07;;;12.80;;
10031;SDS011;5056;44.272;19.892;2022-10-20T03:21:00;15.80;;;14.20;;
10031;SDS011;5056;44.272;19.892;2022-10-20T03:23:29;14.90;;;13.60;;
10031;SDS011;5056;44.272;19.892;2022-10-20T03:26:00;12.20;;;11.00;;
10031;SDS011;5056;44.272;19.892;2022-10-20T03:28:28;10.73;;;9.73;;
10031;SDS011;5056;44.272;19.892;2022-10-20T03:30:55;11.83;;;9.87;;
10031;SDS011;5056;44.272;19.892;2022-10-20T03:33:22;10.47;;;9.30;;
10031;SDS011;5056;44.272;19.892;2022-10-20T03:35:49;9.43;;;8.43;;
10031;SDS011;5056;44.272;19.892;2022-10-20T03:38:17;10.33;;;9.00;;
10031;SDS011;5056;44.272;19.892;2022-10-20T03:40:46;10.57;;;9.47;;
10031;SDS011;5056;44.272;19.892;2022-10-20T03:43:13;13.23;;;9.30;;
10031;SDS011;5056;44.272;19.892;2022-10-20T03:45:41;10.10;;;9.10;;
10031;SDS011;5056;44.272;19.892;2022-10-20T03:51:14;9.47;;;8.57;;
10031;SDS011;5056;44.272;19.892;2022-10-20T03:53:43;10.80;;;8.80;;
10031;SDS011;5056;44.272;19.892;2022-10-20T03:56:14;9.73;;;8.77;;
10031;SDS011;5056;44.272;19.892;2022-10-20T03:58:42;13.67;;;9.93;;
10031;SDS011;5056;44.272;19.892;2022-10-20T04:01:12;10.13;;;8.90;;
10031;SDS011;5056;44.272;19.892;2022-10-20T04:03:39;10.60;;;9.60;;
10031;SDS011;5056;44.272;19.892;2022-10-20T04:06:10;12.57;;;8.97;;
10031;SDS011;5056;44.272;19.892;2022-10-20T04:08:38;10.43;;;9.43;;
10031;SDS011;5056;44.272;19.892;2022-10-20T04:11:05;12.30;;;9.93;;
10031;SDS011;5056;44.272;19.892;2022-10-20T04:13:34;13.53;;;10.63;;
10031;SDS011;5056;44.272;19.892;2022-10-20T04:16:01;12.03;;;10.80;;
10031;SDS011;5056;44.272;19.892;2022-10-20T04:18:29;11.53;;;10.33;;
10031;SDS011;5056;44.272;19.892;2022-10-20T04:21:01;14.07;;;11.57;;
10031;SDS011;5056;44.272;19.892;2022-10-20T04:23:28;12.03;;;9.93;;
10031;SDS011;5056;44.272;19.892;2022-10-20T04:25:55;10.87;;;9.83;;
10031;SDS011;5056;44.272;19.892;2022-10-20T04:28:22;11.37;;;9.13;;
10031;SDS011;5056;44.272;19.892;2022-10-20T04:30:52;10.93;;;9.60;;
10031;SDS011;5056;44.272;19.892;2022-10-20T04:33:21;10.87;;;9.20;;
10031;SDS011;5056;44.272;19.892;2022-10-20T04:35:48;10.73;;;9.67;;
10031;SDS011;5056;44.272;19.892;2022-10-20T04:38:16;11.63;;;10.43;;
10031;SDS011;5056;44.272;19.892;2022-10-20T04:40:43;11.70;;;10.60;;
10031;SDS011;5056;44.272;19.892;2022-10-20T04:43:10;11.13;;;9.83;;
10031;SDS011;5056;44.272;19.892;2022-10-20T04:45:37;11.33;;;9.57;;
10031;SDS011;5056;44.272;19.892;2022-10-20T04:48:07;12.57;;;10.43;;
10031;SDS011;5056;44.272;19.892;2022-10-20T04:50:34;10.23;;;9.23;;
10031;SDS011;5056;44.272;19.892;2022-10-20T04:53:02;11.00;;;9.27;;
10031;SDS011;5056;44.272;19.892;2022-10-20T04:55:29;12.67;;;9.63;;
10031;SDS011;5056;44.272;19.892;2022-10-20T04:57:59;12.00;;;9.80;;
10031;SDS011;5056;44.272;19.892;2022-10-20T05:00:26;12.50;;;11.20;;
10031;SDS011;5056;44.272;19.892;2022-10-20T05:02:54;13.27;;;11.87;;
10031;SDS011;5056;44.272;19.892;2022-10-20T05:05:22;11.73;;;10.53;;
10031;SDS011;5056;44.272;19.892;2022-10-20T05:07:49;10.67;;;9.67;;
10031;SDS011;5056;44.272;19.892;2022-10-20T05:10:17;12.03;;;9.57;;
10031;SDS011;5056;44.272;19.892;2022-10-20T05:12:44;11.87;;;9.93;;
10031;SDS011;5056;44.272;19.892;2022-10-20T05:15:12;10.70;;;9.60;;
10031;SDS011;5056;44.272;19.892;2022-10-20T05:17:40;12.97;;;10.57;;
10031;SDS011;5056;44.272;19.892;2022-10-20T05:20:08;12.67;;;11.07;;
10031;SDS011;5056;44.272;19.892;2022-10-20T05:22:37;14.03;;;12.53;;
10031;SDS011;5056;44.272;19.892;2022-10-20T05:25:08;12.87;;;9.93;;
10031;SDS011;5056;44.272;19.892;2022-10-20T05:27:35;13.50;;;11.13;;
10031;SDS011;5056;44.272;19.892;2022-10-20T05:30:02;13.33;;;11.07;;
10031;SDS011;5056;44.272;19.892;2022-10-20T05:32:30;12.13;;;10.60;;
10031;SDS011;5056;44.272;19.892;2022-10-20T05:34:58;14.17;;;11.47;;
10031;SDS011;5056;44.272;19.892;2022-10-20T05:37:29;12.10;;;10.90;;
10031;SDS011;5056;44.272;19.892;2022-10-20T05:39:57;11.30;;;10.10;;
10031;SDS011;5056;44.272;19.892;2022-10-20T05:42:29;11.13;;;10.10;;
10031;SDS011;5056;44.272;19.892;2022-10-20T05:44:56;11.47;;;10.37;;
10031;SDS011;5056;44.272;19.892;2022-10-20T05:47:24;13.30;;;10.43;;
10031;SDS011;5056;44.272;19.892;2022-10-20T05:49:51;15.57;;;11.57;;
10031;SDS011;5056;44.272;19.892;2022-10-20T05:52:18;13.43;;;10.70;;
10031;SDS011;5056;44.272;19.892;2022-10-20T05:54:46;17.83;;;11.73;;
10031;SDS011;5056;44.272;19.892;2022-10-20T05:57:15;12.40;;;11.10;;
10031;SDS011;5056;44.272;19.892;2022-10-20T05:59:42;18.90;;;13.80;;
10031;SDS011;5056;44.272;19.892;2022-10-20T06:02:09;13.80;;;11.90;;
10031;SDS011;5056;44.272;19.892;2022-10-20T06:04:37;14.23;;;12.73;;
10031;SDS011;5056;44.272;19.892;2022-10-20T06:07:05;21.87;;;15.13;;
10031;SDS011;5056;44.272;19.892;2022-10-20T06:09:34;15.83;;;14.07;;
10031;SDS011;5056;44.272;19.892;2022-10-20T06:12:01;16.90;;;15.00;;
10031;SDS011;5056;44.272;19.892;2022-10-20T06:14:32;20.77;;;13.83;;
10031;SDS011;5056;44.272;19.892;2022-10-20T06:16:59;22.93;;;17.13;;
10031;SDS011;5056;44.272;19.892;2022-10-20T06:19:26;18.37;;;15.53;;
10031;SDS011;5056;44.272;19.892;2022-10-20T06:21:53;18.08;;;14.05;;
10031;SDS011;5056;44.272;19.892;2022-10-20T06:24:20;23.30;;;17.15;;
10031;SDS011;5056;44.272;19.892;2022-10-20T06:26:48;15.43;;;13.77;;
10031;SDS011;5056;44.272;19.892;2022-10-20T06:29:16;19.63;;;14.35;;
10031;SDS011;5056;44.272;19.892;2022-10-20T06:31:45;18.17;;;13.93;;
10031;SDS011;5056;44.272;19.892;2022-10-20T06:34:15;18.02;;;12.77;;
10031;SDS011;5056;44.272;19.892;2022-10-20T06:36:44;13.80;;;10.57;;
10031;SDS011;5056;44.272;19.892;2022-10-20T06:39:13;11.63;;;9.40;;
10031;SDS011;5056;44.272;19.892;2022-10-20T06:41:41;10.32;;;8.18;;
10031;SDS011;5056;44.272;19.892;2022-10-20T06:44:08;10.30;;;8.82;;
10031;SDS011;5056;44.272;19.892;2022-10-20T06:46:36;8.13;;;7.43;;
10031;SDS011;5056;44.272;19.892;2022-10-20T06:49:05;8.65;;;7.95;;
10031;SDS011;5056;44.272;19.892;2022-10-20T06:51:34;8.23;;;7.43;;
10031;SDS011;5056;44.272;19.892;2022-10-20T06:54:01;6.53;;;5.93;;
10031;SDS011;5056;44.272;19.892;2022-10-20T06:56:30;6.03;;;5.53;;
10031;SDS011;5056;44.272;19.892;2022-10-20T06:58:59;5.05;;;4.38;;
10031;SDS011;5056;44.272;19.892;2022-10-20T07:01:28;6.20;;;5.65;;
10031;SDS011;5056;44.272;19.892;2022-10-20T07:03:56;5.55;;;5.15;;
10031;SDS011;5056;44.272;19.892;2022-10-20T07:06:28;5.20;;;4.75;;
10031;SDS011;5056;44.272;19.892;2022-10-20T07:08:56;9.52;;;5.40;;
10031;SDS011;5056;44.272;19.892;2022-10-20T07:11:26;5.03;;;4.63;;
10031;SDS011;5056;44.272;19.892;2022-10-20T07:13:56;6.43;;;5.10;;
10031;SDS011;5056;44.272;19.892;2022-10-20T07:16:24;6.28;;;5.68;;
10031;SDS011;5056;44.272;19.892;2022-10-20T07:18:55;8.50;;;4.38;;
10031;SDS011;5056;44.272;19.892;2022-10-20T07:21:25;5.20;;;4.43;;
10031;SDS011;5056;44.272;19.892;2022-10-20T07:23:55;5.13;;;4.40;;
10031;SDS011;5056;44.272;19.892;2022-10-20T07:26:28;6.72;;;4.85;;
10031;SDS011;5056;44.272;19.892;2022-10-20T07:28:56;4.90;;;4.50;;
10031;SDS011;5056;44.272;19.892;2022-10-20T07:31:24;5.70;;;4.70;;
10031;SDS011;5056;44.272;19.892;2022-10-20T07:33:52;8.27;;;7.05;;
10031;SDS011;5056;44.272;19.892;2022-10-20T07:36:24;6.57;;;5.82;;
10031;SDS011;5056;44.272;19.892;2022-10-20T07:38:55;6.43;;;5.75;;
10031;SDS011;5056;44.272;19.892;2022-10-20T07:41:23;7.63;;;5.45;;
10031;SDS011;5056;44.272;19.892;2022-10-20T07:43:51;6.30;;;5.40;;
10031;SDS011;5056;44.272;19.892;2022-10-20T07:46:19;5.85;;;5.25;;
10031;SDS011;5056;44.272;19.892;2022-10-20T07:48:47;7.50;;;5.15;;
10031;SDS011;5056;44.272;19.892;2022-10-20T07:51:16;8.77;;;5.65;;
10031;SDS011;5056;44.272;19.892;2022-10-20T07:53:52;6.50;;;5.32;;
10031;SDS011;5056;44.272;19.892;2022-10-20T07:56:20;4.90;;;4.47;;
10031;SDS011;5056;44.272;19.892;2022-10-20T07:58:48;6.60;;;5.43;;
10031;SDS011;5056;44.272;19.892;2022-10-20T08:01:16;5.53;;;4.93;;
10031;SDS011;5056;44.272;19.892;2022-10-20T08:03:42;7.40;;;5.38;;
10031;SDS011;5056;44.272;19.892;2022-10-20T08:06:10;7.43;;;4.82;;
10031;SDS011;5056;44.272;19.892;2022-10-20T08:08:37;5.45;;;4.35;;
10031;SDS011;5056;44.272;19.892;2022-10-20T08:11:06;4.55;;;4.05;;
10031;SDS011;5056;44.272;19.892;2022-10-20T08:13:33;5.10;;;4.57;;
10031;SDS011;5056;44.272;19.892;2022-10-20T08:16:01;7.88;;;4.60;;
10031;SDS011;5056;44.272;19.892;2022-10-20T08:18:28;4.90;;;4.50;;
10031;SDS011;5056;44.272;19.892;2022-10-20T08:21:04;10.18;;;6.97;;
10031;SDS011;5056;44.272;19.892;2022-10-20T08:23:33;6.88;;;5.50;;
10031;SDS011;5056;44.272;19.892;2022-10-20T08:26:00;4.82;;;4.53;;
10031;SDS011;5056;44.272;19.892;2022-10-20T08:28:30;6.60;;;5.38;;
10031;SDS011;5056;44.272;19.892;2022-10-20T08:30:57;5.40;;;4.90;;
10031;SDS011;5056;44.272;19.892;2022-10-20T08:33:23;5.45;;;4.90;;
10031;SDS011;5056;44.272;19.892;2022-10-20T08:35:54;5.78;;;4.30;;
10031;SDS011;5056;44.272;19.892;2022-10-20T08:38:21;4.72;;;4.32;;
10031;SDS011;5056;44.272;19.892;2022-10-20T08:40:49;8.52;;;4.63;;
10031;SDS011;5056;44.272;19.892;2022-10-20T08:43:16;5.05;;;4.63;;
10031;SDS011;5056;44.272;19.892;2022-10-20T08:45:49;5.40;;;4.45;;
10031;SDS011;5056;44.272;19.892;2022-10-20T08:48:17;4.85;;;4.35;;
10031;SDS011;5056;44.272;19.892;2022-10-20T08:50:49;7.00;;;4.70;;
10031;SDS011;5056;44.272;19.892;2022-10-20T08:53:17;4.90;;;4.30;;
10031;SDS011;5056;44.272;19.892;2022-10-20T08:55:46;5.97;;;4.43;;
10031;SDS011;5056;44.272;19.892;2022-10-20T08:58:14;5.03;;;4.43;;
10031;SDS011;5056;44.272;19.892;2022-10-20T09:00:42;5.22;;;4.20;;
10031;SDS011;5056;44.272;19.892;2022-10-20T09:03:27;4.68;;;4.38;;
10031;SDS011;5056;44.272;19.892;2022-10-20T09:05:55;8.45;;;5.00;;
10031;SDS011;5056;44.272;19.892;2022-10-20T09:08:27;4.95;;;4.53;;
10031;SDS011;5056;44.272;19.892;2022-10-20T09:10:57;5.80;;;4.47;;
10031;SDS011;5056;44.272;19.892;2022-10-20T09:13:30;4.60;;;4.20;;
10031;SDS011;5056;44.272;19.892;2022-10-20T09:16:02;6.25;;;4.57;;
10031;SDS011;5056;44.272;19.892;2022-10-20T09:18:33;5.22;;;4.68;;
10031;SDS011;5056;44.272;19.892;2022-10-20T09:21:01;4.22;;;3.83;;
10031;SDS011;5056;44.272;19.892;2022-10-20T09:23:33;5.30;;;4.80;;
10031;SDS011;5056;44.272;19.892;2022-10-20T09:26:02;5.40;;;4.90;;
10031;SDS011;5056;44.272;19.892;2022-10-20T09:28:30;5.68;;;4.65;;
10031;SDS011;5056;44.272;19.892;2022-10-20T09:30:57;5.30;;;4.80;;
10031;SDS011;5056;44.272;19.892;2022-10-20T09:33:29;4.78;;;4.35;;
10031;SDS011;5056;44.272;19.892;2022-10-20T09:36:02;5.20;;;4.80;;
10031;SDS011;5056;44.272;19.892;2022-10-20T09:38:30;5.30;;;4.45;;
10031;SDS011;5056;44.272;19.892;2022-10-20T09:41:03;4.93;;;4.28;;
10031;SDS011;5056;44.272;19.892;2022-10-20T09:43:36;4.93;;;4.05;;
10031;SDS011;5056;44.272;19.892;2022-10-20T09:46:08;5.03;;;4.13;;
10031;SDS011;5056;44.272;19.892;2022-10-20T09:48:37;4.47;;;4.07;;
10031;SDS011;5056;44.272;19.892;2022-10-20T09:51:12;5.82;;;4.13;;
10031;SDS011;5056;44.272;19.892;2022-10-20T09:53:44;4.80;;;4.38;;
10031;SDS011;5056;44.272;19.892;2022-10-20T09:56:22;5.03;;;4.13;;
10031;SDS011;5056;44.272;19.892;2022-10-20T09:58:51;5.03;;;4.47;;
10031;SDS011;5056;44.272;19.892;2022-10-20T10:01:18;5.03;;;4.00;;
10031;SDS011;5056;44.272;19.892;2022-10-20T10:03:45;5.70;;;4.40;;
10031;SDS011;5056;44.272;19.892;2022-10-20T10:06:26;5.43;;;4.10;;
10031;SDS011;5056;44.272;19.892;2022-10-20T10:08:55;5.97;;;4.18;;
10031;SDS011;5056;44.272;19.892;2022-10-20T10:11:24;4.75;;;4.35;;
10031;SDS011;5056;44.272;19.892;2022-10-20T10:13:55;4.70;;;4.30;;
10031;SDS011;5056;44.272;19.892;2022-10-20T10:16:22;7.75;;;4.57;;
10031;SDS011;5056;44.272;19.892;2022-10-20T10:18:56;5.22;;;4.72;;
10031;SDS011;5056;44.272;19.892;2022-10-20T10:21:28;7.28;;;4.72;;
10031;SDS011;5056;44.272;19.892;2022-10-20T10:23:58;8.80;;;4.80;;
10031;SDS011;5056;44.272;19.892;2022-10-20T10:26:36;4.50;;;4.18;;
10031;SDS011;5056;44.272;19.892;2022-10-20T10:29:14;8.00;;;5.00;;
10031;SDS011;5056;44.272;19.892;2022-10-20T10:31:45;7.53;;;4.60;;
10031;SDS011;5056;44.272;19.892;2022-10-20T10:34:26;4.65;;;4.25;;
10031;SDS011;5056;44.272;19.892;2022-10-20T10:37:00;4.72;;;4.32;;
10031;SDS011;5056;44.272;19.892;2022-10-20T10:39:27;5.05;;;4.65;;
10031;SDS011;5056;44.272;19.892;2022-10-20T10:41:59;4.82;;;4.43;;
10031;SDS011;5056;44.272;19.892;2022-10-20T10:44:35;5.38;;;4.88;;
10031;SDS011;5056;44.272;19.892;2022-10-20T10:47:13;4.82;;;4.45;;
10031;SDS011;5056;44.272;19.892;2022-10-20T10:49:53;4.50;;;4.15;;
10031;SDS011;5056;44.272;19.892;2022-10-20T10:52:29;4.90;;;4.40;;
10031;SDS011;5056;44.272;19.892;2022-10-20T10:55:05;4.70;;;4.30;;
10031;SDS011;5056;44.272;19.892;2022-10-20T10:57:40;4.85;;;4.13;;
10031;SDS011;5056;44.272;19.892;2022-10-20T11:00:16;4.78;;;4.47;;
10031;SDS011;5056;44.272;19.892;2022-10-20T11:02:57;6.45;;;5.85;;
10031;SDS011;5056;44.272;19.892;2022-10-20T11:08:37;6.22;;;4.47;;
10031;SDS011;5056;44.272;19.892;2022-10-20T11:14:09;4.78;;;4.38;;
10031;SDS011;5056;44.272;19.892;2022-10-20T11:16:42;4.95;;;4.25;;
10031;SDS011;5056;44.272;19.892;2022-10-20T11:25:04;4.93;;;4.50;;
10031;SDS011;5056;44.272;19.892;2022-10-20T11:27:37;4.47;;;4.18;;
10031;SDS011;5056;44.272;19.892;2022-10-20T11:30:11;5.10;;;4.50;;
10031;SDS011;5056;44.272;19.892;2022-10-20T11:32:41;5.05;;;4.30;;
10031;SDS011;5056;44.272;19.892;2022-10-20T11:35:13;6.63;;;5.35;;
10031;SDS011;5056;44.272;19.892;2022-10-20T11:37:43;5.13;;;4.72;;
10031;SDS011;5056;44.272;19.892;2022-10-20T11:40:15;5.30;;;4.60;;
10031;SDS011;5056;44.272;19.892;2022-10-20T11:42:49;4.60;;;4.20;;
10031;SDS011;5056;44.272;19.892;2022-10-20T11:45:24;6.15;;;5.47;;
10031;SDS011;5056;44.272;19.892;2022-10-20T11:47:56;5.28;;;4.88;;
10031;SDS011;5056;44.272;19.892;2022-10-20T11:50:27;6.43;;;5.82;;
10031;SDS011;5056;44.272;19.892;2022-10-20T11:53:07;6.60;;;5.97;;
10031;SDS011;5056;44.272;19.892;2022-10-20T12:02:03;6.72;;;6.00;;
10031;SDS011;5056;44.272;19.892;2022-10-20T12:04:44;10.57;;;9.48;;
10031;SDS011;5056;44.272;19.892;2022-10-20T12:10:25;5.80;;;5.30;;
10031;SDS011;5056;44.272;19.892;2022-10-20T12:12:57;5.38;;;4.90;;
10031;SDS011;5056;44.272;19.892;2022-10-20T12:15:35;6.75;;;6.15;;
10031;SDS011;5056;44.272;19.892;2022-10-20T12:18:15;14.95;;;11.00;;
10031;SDS011;5056;44.272;19.892;2022-10-20T12:20:53;34.15;;;21.92;;
10031;SDS011;5056;44.272;19.892;2022-10-20T12:26:34;17.85;;;16.50;;
10031;SDS011;5056;44.272;19.892;2022-10-20T12:38:18;8.95;;;7.38;;
10031;SDS011;5056;44.272;19.892;2022-10-20T12:40:48;6.97;;;6.45;;
10031;SDS011;5056;44.272;19.892;2022-10-20T12:46:18;6.32;;;5.72;;
10031;SDS011;5056;44.272;19.892;2022-10-20T12:48:48;6.93;;;5.95;;
10031;SDS011;5056;44.272;19.892;2022-10-20T12:54:18;8.43;;;6.63;;
10031;SDS011;5056;44.272;19.892;2022-10-20T12:56:48;6.03;;;5.43;;
10031;SDS011;5056;44.272;19.892;2022-10-20T12:59:32;5.63;;;5.22;;
10031;SDS011;5056;44.272;19.892;2022-10-20T13:11:31;7.80;;;6.38;;
10031;SDS011;5056;44.272;19.892;2022-10-20T13:17:00;6.18;;;5.57;;
10031;SDS011;5056;44.272;19.892;2022-10-20T13:19:33;7.05;;;6.38;;
10031;SDS011;5056;44.272;19.892;2022-10-20T13:25:09;6.35;;;5.70;;
10031;SDS011;5056;44.272;19.892;2022-10-20T13:27:39;7.88;;;7.28;;
10031;SDS011;5056;44.272;19.892;2022-10-20T13:33:22;5.53;;;4.97;;
10031;SDS011;5056;44.272;19.892;2022-10-20T13:35:55;6.50;;;5.85;;
10031;SDS011;5056;44.272;19.892;2022-10-20T13:38:36;6.38;;;5.75;;
10031;SDS011;5056;44.272;19.892;2022-10-20T13:41:07;6.65;;;5.85;;
10031;SDS011;5056;44.272;19.892;2022-10-20T13:46:33;9.65;;;8.13;;
10031;SDS011;5056;44.272;19.892;2022-10-20T13:49:20;8.23;;;7.43;;
10031;SDS011;5056;44.272;19.892;2022-10-20T13:51:58;8.82;;;8.02;;
10031;SDS011;5056;44.272;19.892;2022-10-20T13:54:34;12.70;;;9.93;;
10031;SDS011;5056;44.272;19.892;2022-10-20T13:57:04;11.25;;;10.13;;
10031;SDS011;5056;44.272;19.892;2022-10-20T13:59:32;10.75;;;8.85;;
10031;SDS011;5056;44.272;19.892;2022-10-20T14:02:00;10.77;;;9.18;;
10031;SDS011;5056;44.272;19.892;2022-10-20T14:04:32;51.70;;;47.05;;
10031;SDS011;5056;44.272;19.892;2022-10-20T14:07:03;16.33;;;15.00;;
10031;SDS011;5056;44.272;19.892;2022-10-20T14:09:33;18.75;;;17.20;;
10031;SDS011;5056;44.272;19.892;2022-10-20T14:12:01;9.65;;;6.63;;
10031;SDS011;5056;44.272;19.892;2022-10-20T14:14:31;6.38;;;5.88;;
10031;SDS011;5056;44.272;19.892;2022-10-20T14:16:59;8.35;;;6.13;;
10031;SDS011;5056;44.272;19.892;2022-10-20T14:19:29;6.50;;;5.60;;
10031;SDS011;5056;44.272;19.892;2022-10-20T14:22:08;7.05;;;6.35;;
10031;SDS011;5056;44.272;19.892;2022-10-20T14:24:37;8.85;;;6.03;;
10031;SDS011;5056;44.272;19.892;2022-10-20T14:27:12;7.18;;;6.53;;
10031;SDS011;5056;44.272;19.892;2022-10-20T14:29:43;8.00;;;6.97;;
10031;SDS011;5056;44.272;19.892;2022-10-20T14:32:11;6.90;;;6.20;;
10031;SDS011;5056;44.272;19.892;2022-10-20T14:34:53;7.80;;;6.68;;
10031;SDS011;5056;44.272;19.892;2022-10-20T14:37:25;7.43;;;6.20;;
10031;SDS011;5056;44.272;19.892;2022-10-20T14:39:57;7.55;;;6.85;;
10031;SDS011;5056;44.272;19.892;2022-10-20T14:42:28;7.25;;;6.55;;
10031;SDS011;5056;44.272;19.892;2022-10-20T14:44:57;9.40;;;8.50;;
10031;SDS011;5056;44.272;19.892;2022-10-20T14:47:25;14.52;;;8.15;;
10031;SDS011;5056;44.272;19.892;2022-10-20T14:50:00;6.70;;;6.13;;
10031;SDS011;5056;44.272;19.892;2022-10-20T14:52:27;7.10;;;6.40;;
10031;SDS011;5056;44.272;19.892;2022-10-20T14:54:56;6.95;;;5.53;;
10031;SDS011;5056;44.272;19.892;2022-10-20T14:57:38;6.85;;;6.18;;
10031;SDS011;5056;44.272;19.892;2022-10-20T15:00:23;6.28;;;5.78;;
10031;SDS011;5056;44.272;19.892;2022-10-20T15:02:53;5.90;;;5.40;;
10031;SDS011;5056;44.272;19.892;2022-10-20T15:05:30;6.60;;;5.90;;
10031;SDS011;5056;44.272;19.892;2022-10-20T15:08:05;7.07;;;6.38;;
10031;SDS011;5056;44.272;19.892;2022-10-20T15:10:34;9.30;;;6.72;;
10031;SDS011;5056;44.272;19.892;2022-10-20T15:13:01;8.27;;;7.43;;
10031;SDS011;5056;44.272;19.892;2022-10-20T15:15:36;22.92;;;10.82;;
10031;SDS011;5056;44.272;19.892;2022-10-20T15:18:08;10.77;;;6.88;;
10031;SDS011;5056;44.272;19.892;2022-10-20T15:20:38;22.88;;;9.02;;
10031;SDS011;5056;44.272;19.892;2022-10-20T15:23:08;15.70;;;8.68;;
10031;SDS011;5056;44.272;19.892;2022-10-20T15:25:39;17.90;;;12.18;;
10031;SDS011;5056;44.272;19.892;2022-10-20T15:28:29;16.50;;;8.98;;
10031;SDS011;5056;44.272;19.892;2022-10-20T15:30:59;11.55;;;7.20;;
10031;SDS011;5056;44.272;19.892;2022-10-20T15:33:28;18.55;;;16.77;;
10031;SDS011;5056;44.272;19.892;2022-10-20T15:35:58;20.02;;;18.23;;
10031;SDS011;5056;44.272;19.892;2022-10-20T15:38:26;12.40;;;11.20;;
10031;SDS011;5056;44.272;19.892;2022-10-20T15:40:53;18.80;;;17.05;;
10031;SDS011;5056;44.272;19.892;2022-10-20T15:43:21;18.48;;;16.48;;
10031;SDS011;5056;44.272;19.892;2022-10-20T15:45:51;12.50;;;11.30;;
10031;SDS011;5056;44.272;19.892;2022-10-20T15:48:19;12.52;;;11.13;;
10031;SDS011;5056;44.272;19.892;2022-10-20T15:50:48;31.08;;;20.70;;
10031;SDS011;5056;44.272;19.892;2022-10-20T15:53:17;17.70;;;13.95;;
10031;SDS011;5056;44.272;19.892;2022-10-20T15:55:44;15.95;;;13.07;;
10031;SDS011;5056;44.272;19.892;2022-10-20T15:58:11;15.63;;;13.48;;
10031;SDS011;5056;44.272;19.892;2022-10-20T16:00:47;15.30;;;13.32;;
10031;SDS011;5056;44.272;19.892;2022-10-20T16:03:15;18.05;;;15.00;;
10031;SDS011;5056;44.272;19.892;2022-10-20T16:05:43;15.77;;;14.18;;